< < Back
Terminal Aerodrome Forecast


Current Version              Previous Versions:   1  2  3  4  5  6  7  8  9  

Terminal Aerodrome Forecast

944
FTUS44 KBMX 241729
TAFBHM
TAF
KBHM 241729Z 2418/2518 16005KT P6SM VCTS BKN035CB
     FM250100 10002KT P6SM SCT250=

Latest METAR

995
SAUS70 KWBC 250756
MTRBHM
METAR KBHM 250753Z 00000KT 10SM SCT060 27/23 A3016 RMK AO2 SLP202
T02670228


USA.gov is the U.S. government's official web portal to all federal, state and local government web resources and services.